F/V Le Dolmen — FHMD — position and weather

sailwx.info

Track history (hours):
 
Tides and Currents Weather Stations Pressure Air Temp Water Temp Dewpoint Dewpoint Depression Visibility Wind Speed Wind Dir Waves Ship Positions

F/V Le Dolmen

Last reported at 2015-Aug-01 07:34 UTC. Time now 2015-Aug-01 07:47 UTC.
Position N 47°44' W 003°22'.

Length 18 m.

Type: Fishing. MMSI: 228374000.

Date/timePositionNaut miles runAvg speedWind from/ knotsBaromVisibWave heightAir tempDewpointWater temp
2015-Aug-01 07:34N 47°44' W 003°22'0 0.0
2015-Aug-01 04:15N 47°44' W 003°22'0 0.0
2015-Aug-01 03:22N 47°44' W 003°22'0 0.0
2015-Jul-31 23:04N 47°44' W 003°22'0 0.0
2015-Jul-31 22:33N 47°44' W 003°22'0 0.0
2015-Jul-31 21:31N 47°44' W 003°22'0 0.0
2015-Jul-31 20:26N 47°44' W 003°22'0 0.0
2015-Jul-31 19:32N 47°44' W 003°22'0 0.0
2015-Jul-31 18:34N 47°44' W 003°22'0 0.0
2015-Jul-31 17:34N 47°44' W 003°22'0 0.0
2015-Jul-31 16:33N 47°44' W 003°22'0 0.0
2015-Jul-31 15:34N 47°44' W 003°22'0 0.0
2015-Jul-31 14:33N 47°44' W 003°22'0 0.0
2015-Jul-31 13:34N 47°44' W 003°22'0 0.0
2015-Jul-31 12:33N 47°44' W 003°22'0 0.0
2015-Jul-31 09:22N 47°44' W 003°22'0 0.0
2015-Jul-31 04:09N 47°44' W 003°22'0 0.0
2015-Jul-31 03:26N 47°44' W 003°22'0 0.0
2015-Jul-30 23:33N 47°44' W 003°22'0 0.0
2015-Jul-30 22:18N 47°44' W 003°22'0 0.0
2015-Jul-30 20:29N 47°44' W 003°22'0 0.0
2015-Jul-30 19:33N 47°44' W 003°22'0 0.0
2015-Jul-30 18:33N 47°44' W 003°22'0 0.0
2015-Jul-30 17:29N 47°44' W 003°22'0 0.0
2015-Jul-30 16:33N 47°44' W 003°22'0 0.0
2015-Jul-30 15:33N 47°44' W 003°22'0 0.0
2015-Jul-30 14:33N 47°44' W 003°22'0 0.0
2015-Jul-30 13:09N 47°44' W 003°22'0 0.0
2015-Jul-30 12:33N 47°44' W 003°22'0 0.0
2015-Jul-30 11:34N 47°44' W 003°22'0 0.1
2015-Jul-30 10:33N 47°44' W 003°22'0 0.1
2015-Jul-30 09:33N 47°44' W 003°22'10 9.6
2015-Jul-30 08:33N 47°35' W 003°16'1010.1
2015-Jul-30 07:33N 47°27' W 003°07'1010.2
2015-Jul-30 06:33N 47°24' W 002°53'10 9.8
2015-Jul-30 05:33N 47°22' W 002°39'5 1.3
2015-Jul-30 01:30N 47°21' W 002°31'9 9.3
2015-Jul-30 00:33N 47°19' W 002°43'10 9.5
2015-Jul-29 23:33N 47°19' W 002°57'1010.1
2015-Jul-29 22:33N 47°23' W 003°11'1010.1
2015-Jul-29 21:33N 47°26' W 003°25'10 9.7
2015-Jul-29 20:33N 47°28' W 003°39'9 9.3
2015-Jul-29 19:32N 47°30' W 003°53'11 0.6
2015-Jul-29 00:30N 47°38' W 003°42'7 7.7
2015-Jul-28 23:34N 47°40' W 003°31'7 7.1
2015-Jul-28 22:33N 47°43' W 003°22'0 0.4
2015-Jul-28 21:33N 47°44' W 003°22'0 0.0
2015-Jul-28 20:33N 47°44' W 003°22'0 0.0
2015-Jul-28 19:33N 47°44' W 003°22'0 0.0
2015-Jul-28 18:33N 47°44' W 003°22'2 2.2
2015-Jul-28 17:33N 47°42' W 003°23'9 9.0
2015-Jul-28 16:33N 47°39' W 003°36'2 0.1
2015-Jul-27 08:30N 47°39' W 003°38'7 8.0
2015-Jul-27 07:33N 47°40' W 003°27'5 5.0
2015-Jul-27 06:33N 47°44' W 003°22'0 0.1
2015-Jul-27 05:33N 47°44' W 003°22'0 0.0
2015-Jul-27 04:33N 47°44' W 003°22'0 0.0
2015-Jul-27 03:33N 47°44' W 003°22'0 0.0
2015-Jul-27 02:33N 47°44' W 003°22'0 0.0
2015-Jul-27 01:34N 47°44' W 003°22'0 0.0
2015-Jul-27 00:33N 47°44' W 003°22'0 0.0
2015-Jul-26 23:33N 47°44' W 003°22'0 0.0
2015-Jul-26 22:33N 47°44' W 003°22'0 0.0
2015-Jul-26 21:33N 47°44' W 003°22'0 0.2
2015-Jul-26 20:33N 47°44' W 003°22'0 0.0
2015-Jul-26 19:33N 47°44' W 003°22'1 0.6
2015-Jul-26 18:33N 47°43' W 003°22'8 7.7
2015-Jul-26 17:33N 47°40' W 003°32'8 8.0
2015-Jul-26 16:31N 47°38' W 003°44'11 0.3
2015-Jul-25 02:29N 47°30' W 003°33'7 8.1
2015-Jul-25 01:33N 47°27' W 003°23'8 8.0
2015-Jul-25 00:34N 47°24' W 003°12'8 7.6
2015-Jul-24 23:33N 47°21' W 003°02'8 7.7
2015-Jul-24 22:33N 47°18' W 002°51'8 8.3
2015-Jul-24 21:33N 47°19' W 002°39'6 4.4
2015-Jul-24 20:13N 47°21' W 002°31'0 0.1
2015-Jul-24 19:31N 47°21' W 002°31'0 0.0
2015-Jul-24 18:33N 47°21' W 002°31'0 0.0
2015-Jul-24 17:25N 47°21' W 002°31'0 0.0
2015-Jul-24 16:31N 47°21' W 002°31'0 0.0
2015-Jul-24 15:31N 47°21' W 002°31'0 0.0
2015-Jul-24 14:33N 47°21' W 002°31'0 0.0
2015-Jul-24 13:32N 47°21' W 002°31'0 0.0
2015-Jul-24 12:32N 47°21' W 002°31'0 0.0
2015-Jul-24 10:12N 47°21' W 002°31'0 0.0
2015-Jul-24 09:33N 47°21' W 002°31'0 0.0
2015-Jul-24 07:15N 47°21' W 002°31'0 0.0
2015-Jul-24 06:33N 47°21' W 002°31'0 0.0
2015-Jul-24 05:33N 47°21' W 002°31'0 0.0
2015-Jul-24 02:14N 47°21' W 002°31'6 9.2
2015-Jul-24 01:32N 47°19' W 002°40'9 9.2
2015-Jul-24 00:33N 47°19' W 002°53'9 9.5
2015-Jul-23 23:33N 47°22' W 003°06'9 9.3
2015-Jul-23 22:33N 47°26' W 003°19'8 8.4
2015-Jul-23 21:33N 47°29' W 003°30'9 8.5
2015-Jul-23 20:33N 47°32' W 003°42'10 8.5
2015-Jul-23 19:23N 47°35' W 003°56'16 2.4
2015-Jul-23 12:33N 47°39' W 004°19'6 1.2
2015-Jul-23 07:33N 47°35' W 004°14'27 6.5
2015-Jul-23 03:21N 47°26' W 003°35'6 7.8
2015-Jul-23 02:33N 47°26' W 003°26'8 8.4
2015-Jul-23 01:33N 47°25' W 003°14'8 8.4
2015-Jul-23 00:33N 47°21' W 003°03'9 8.7
2015-Jul-22 23:33N 47°18' W 002°51'9 8.5
2015-Jul-22 22:33N 47°19' W 002°38'5 4.8
2015-Jul-22 21:28N 47°21' W 002°31'2 0.6
2015-Jul-22 18:33N 47°20' W 002°33'10 9.6
2015-Jul-22 17:33N 47°18' W 002°47'10 9.8
2015-Jul-22 16:33N 47°16' W 003°01'10 9.6
2015-Jul-22 15:33N 47°16' W 003°15'10 9.9
2015-Jul-22 14:33N 47°19' W 003°30'1010.1
2015-Jul-22 13:33N 47°22' W 003°44'16 3.7
2015-Jul-22 09:11N 47°28' W 004°06'  
Track history (hours):
 
Tides and Currents Weather Stations Pressure Air Temp Water Temp Dewpoint Dewpoint Depression Visibility Wind Speed Wind Dir Waves Ship Positions

F/V Le Dolmen

Last reported at 2015-Aug-01 07:34 UTC. Time now 2015-Aug-01 07:47 UTC.
Position N 47°44' W 003°22'.

Length 18 m.

Type: Fishing. MMSI: 228374000.

Date/timePositionNaut miles runAvg speedWind from/ knotsBaromVisibWave heightAir tempDewpointWater temp
2015-Aug-01 07:34N 47°44' W 003°22'0 0.0
2015-Aug-01 04:15N 47°44' W 003°22'0 0.0
2015-Aug-01 03:22N 47°44' W 003°22'0 0.0
2015-Jul-31 23:04N 47°44' W 003°22'0 0.0
2015-Jul-31 22:33N 47°44' W 003°22'0 0.0
2015-Jul-31 21:31N 47°44' W 003°22'0 0.0
2015-Jul-31 20:26N 47°44' W 003°22'0 0.0
2015-Jul-31 19:32N 47°44' W 003°22'0 0.0
2015-Jul-31 18:34N 47°44' W 003°22'0 0.0
2015-Jul-31 17:34N 47°44' W 003°22'0 0.0
2015-Jul-31 16:33N 47°44' W 003°22'0 0.0
2015-Jul-31 15:34N 47°44' W 003°22'0 0.0
2015-Jul-31 14:33N 47°44' W 003°22'0 0.0
2015-Jul-31 13:34N 47°44' W 003°22'0 0.0
2015-Jul-31 12:33N 47°44' W 003°22'0 0.0
2015-Jul-31 09:22N 47°44' W 003°22'0 0.0
2015-Jul-31 04:09N 47°44' W 003°22'0 0.0
2015-Jul-31 03:26N 47°44' W 003°22'0 0.0
2015-Jul-30 23:33N 47°44' W 003°22'0 0.0
2015-Jul-30 22:18N 47°44' W 003°22'0 0.0
2015-Jul-30 20:29N 47°44' W 003°22'0 0.0
2015-Jul-30 19:33N 47°44' W 003°22'0 0.0
2015-Jul-30 18:33N 47°44' W 003°22'0 0.0
2015-Jul-30 17:29N 47°44' W 003°22'0 0.0
2015-Jul-30 16:33N 47°44' W 003°22'0 0.0
2015-Jul-30 15:33N 47°44' W 003°22'0 0.0
2015-Jul-30 14:33N 47°44' W 003°22'0 0.0
2015-Jul-30 13:09N 47°44' W 003°22'0 0.0
2015-Jul-30 12:33N 47°44' W 003°22'0 0.0
2015-Jul-30 11:34N 47°44' W 003°22'0 0.1
2015-Jul-30 10:33N 47°44' W 003°22'0 0.1
2015-Jul-30 09:33N 47°44' W 003°22'10 9.6
2015-Jul-30 08:33N 47°35' W 003°16'1010.1
2015-Jul-30 07:33N 47°27' W 003°07'1010.2
2015-Jul-30 06:33N 47°24' W 002°53'10 9.8
2015-Jul-30 05:33N 47°22' W 002°39'5 1.3
2015-Jul-30 01:30N 47°21' W 002°31'9 9.3
2015-Jul-30 00:33N 47°19' W 002°43'10 9.5
2015-Jul-29 23:33N 47°19' W 002°57'1010.1
2015-Jul-29 22:33N 47°23' W 003°11'1010.1
2015-Jul-29 21:33N 47°26' W 003°25'10 9.7
2015-Jul-29 20:33N 47°28' W 003°39'9 9.3
2015-Jul-29 19:32N 47°30' W 003°53'11 0.6
2015-Jul-29 00:30N 47°38' W 003°42'7 7.7
2015-Jul-28 23:34N 47°40' W 003°31'7 7.1
2015-Jul-28 22:33N 47°43' W 003°22'0 0.4
2015-Jul-28 21:33N 47°44' W 003°22'0 0.0
2015-Jul-28 20:33N 47°44' W 003°22'0 0.0
2015-Jul-28 19:33N 47°44' W 003°22'0 0.0
2015-Jul-28 18:33N 47°44' W 003°22'2 2.2
2015-Jul-28 17:33N 47°42' W 003°23'9 9.0
2015-Jul-28 16:33N 47°39' W 003°36'2 0.1
2015-Jul-27 08:30N 47°39' W 003°38'7 8.0
2015-Jul-27 07:33N 47°40' W 003°27'5 5.0
2015-Jul-27 06:33N 47°44' W 003°22'0 0.1
2015-Jul-27 05:33N 47°44' W 003°22'0 0.0
2015-Jul-27 04:33N 47°44' W 003°22'0 0.0
2015-Jul-27 03:33N 47°44' W 003°22'0 0.0
2015-Jul-27 02:33N 47°44' W 003°22'0 0.0
2015-Jul-27 01:34N 47°44' W 003°22'0 0.0
2015-Jul-27 00:33N 47°44' W 003°22'0 0.0
2015-Jul-26 23:33N 47°44' W 003°22'0 0.0
2015-Jul-26 22:33N 47°44' W 003°22'0 0.0
2015-Jul-26 21:33N 47°44' W 003°22'0 0.2
2015-Jul-26 20:33N 47°44' W 003°22'0 0.0
2015-Jul-26 19:33N 47°44' W 003°22'1 0.6
2015-Jul-26 18:33N 47°43' W 003°22'8 7.7
2015-Jul-26 17:33N 47°40' W 003°32'8 8.0
2015-Jul-26 16:31N 47°38' W 003°44'11 0.3
2015-Jul-25 02:29N 47°30' W 003°33'7 8.1
2015-Jul-25 01:33N 47°27' W 003°23'8 8.0
2015-Jul-25 00:34N 47°24' W 003°12'8 7.6
2015-Jul-24 23:33N 47°21' W 003°02'8 7.7
2015-Jul-24 22:33N 47°18' W 002°51'8 8.3
2015-Jul-24 21:33N 47°19' W 002°39'6 4.4
2015-Jul-24 20:13N 47°21' W 002°31'0 0.1
2015-Jul-24 19:31N 47°21' W 002°31'0 0.0
2015-Jul-24 18:33N 47°21' W 002°31'0 0.0
2015-Jul-24 17:25N 47°21' W 002°31'0 0.0
2015-Jul-24 16:31N 47°21' W 002°31'0 0.0
2015-Jul-24 15:31N 47°21' W 002°31'0 0.0
2015-Jul-24 14:33N 47°21' W 002°31'0 0.0
2015-Jul-24 13:32N 47°21' W 002°31'0 0.0
2015-Jul-24 12:32N 47°21' W 002°31'0 0.0
2015-Jul-24 10:12N 47°21' W 002°31'0 0.0
2015-Jul-24 09:33N 47°21' W 002°31'0 0.0
2015-Jul-24 07:15N 47°21' W 002°31'0 0.0
2015-Jul-24 06:33N 47°21' W 002°31'0 0.0
2015-Jul-24 05:33N 47°21' W 002°31'0 0.0
2015-Jul-24 02:14N 47°21' W 002°31'6 9.2
2015-Jul-24 01:32N 47°19' W 002°40'9 9.2
2015-Jul-24 00:33N 47°19' W 002°53'9 9.5
2015-Jul-23 23:33N 47°22' W 003°06'9 9.3
2015-Jul-23 22:33N 47°26' W 003°19'8 8.4
2015-Jul-23 21:33N 47°29' W 003°30'9 8.5
2015-Jul-23 20:33N 47°32' W 003°42'10 8.5
2015-Jul-23 19:23N 47°35' W 003°56'16 2.4
2015-Jul-23 12:33N 47°39' W 004°19'6 1.2
2015-Jul-23 07:33N 47°35' W 004°14'27 6.5
2015-Jul-23 03:21N 47°26' W 003°35'6 7.8
2015-Jul-23 02:33N 47°26' W 003°26'8 8.4
2015-Jul-23 01:33N 47°25' W 003°14'8 8.4
2015-Jul-23 00:33N 47°21' W 003°03'9 8.7
2015-Jul-22 23:33N 47°18' W 002°51'9 8.5
2015-Jul-22 22:33N 47°19' W 002°38'5 4.8
2015-Jul-22 21:28N 47°21' W 002°31'2 0.6
2015-Jul-22 18:33N 47°20' W 002°33'10 9.6
2015-Jul-22 17:33N 47°18' W 002°47'10 9.8
2015-Jul-22 16:33N 47°16' W 003°01'10 9.6
2015-Jul-22 15:33N 47°16' W 003°15'10 9.9
2015-Jul-22 14:33N 47°19' W 003°30'1010.1
2015-Jul-22 13:33N 47°22' W 003°44'16 3.7
2015-Jul-22 09:11N 47°28' W 004°06'  

Dump ship's entire track history